Adrian, Ohio
Current Conditions -  °F | °C
As of 1:53 PM on Saturday 25 Oct 2014 (Local Time) from KFDY Reporting Station
Haze Haze  
Wind Chill: 71°   Ceiling: Unl
Heat Index: 71°   Visibility: 4mi
Dew Point: 53°   Wind: 20mph
Humidity: 53%   Direction: 270°W
Pressure: 29.84"   Gusts: NA
Location:  41°N, 83.32°W
Report Text: KFDY 251753Z AUTO 27017KT 4SM HZ CLR 22/12 A2984 RMK AO2 SLP098 T02170117 10217 20128 56016
Loading
Personal Weather Stations






























Interactive Weather Map
Tropical Storm Tracking
New forecast layout! Learn more

10-Day Weather Forecast

Advertisements
Track Severe Weather on mobile